Time;durP1;ratioP1;P1;durP2;ratioP2;P2;SDS_P1;SDS_P2;PMS_P1;PMS_P2;Temp;Humidity;BMP_temperature;BMP_pressure;BME280_temperature;BME280_humidity;BME280_pressure;Samples;Min_cycle;Max_cycle;Signal;HPM_P1;HPM_P2
2021/03/12 00:00:44;;;;;;;22.05;3.63;;;;;;;6.77;77.98;100230.53;4999986;28;20056;-71
2021/03/12 00:03:17;;;;;;;18.05;3.15;;;;;;;6.96;77.40;100269.41;4995372;28;20034;-73
2021/03/12 00:05:52;;;;;;;16.02;2.75;;;;;;;6.98;77.95;100278.06;4994753;28;20034;-73
2021/03/12 00:08:24;;;;;;;19.48;2.90;;;;;;;6.54;77.17;100223.72;4993998;28;20033;-73
2021/03/12 00:10:49;;;;;;;16.48;3.05;;;;;;;6.70;77.54;100248.81;4996005;28;20034;-74
2021/03/12 00:13:15;;;;;;;16.70;3.33;;;;;;;6.95;77.14;100283.66;4969736;28;20065;-74
2021/03/12 00:15:40;;;;;;;14.70;2.50;;;;;;;6.55;77.95;100237.84;5009489;28;20044;-74
2021/03/12 00:18:06;;;;;;;14.43;2.80;;;;;;;6.86;77.93;100291.50;4999237;28;20030;-74
2021/03/12 00:20:36;;;;;;;16.33;2.85;;;;;;;6.85;78.08;100307.56;5014810;28;20488;-74
2021/03/12 00:23:02;;;;;;;22.25;2.75;;;;;;;6.76;77.17;100308.41;4999613;28;20528;-74
2021/03/12 00:25:47;;;;;;;17.80;2.50;;;;;;;6.72;77.62;100323.78;4998749;28;20041;-71
2021/03/12 00:28:15;;;;;;;15.80;2.35;;;;;;;6.27;78.18;100264.22;4998818;28;20022;-72
2021/03/12 00:30:41;;;;;;;19.90;3.35;;;;;;;6.46;77.61;100304.94;5001468;28;20022;-71
2021/03/12 00:33:07;;;;;;;16.33;3.20;;;;;;;6.58;78.24;100338.31;5004304;28;20034;-72
2021/03/12 00:35:35;;;;;;;15.98;2.90;;;;;;;6.59;78.48;100339.94;5004544;28;20403;-71
2021/03/12 00:38:00;;;;;;;16.57;2.60;;;;;;;6.64;78.75;100347.50;5005612;28;20029;-71
2021/03/12 00:40:30;;;;;;;18.75;2.70;;;;;;;6.63;78.08;100354.59;5002057;28;20030;-71
2021/03/12 00:42:56;;;;;;;14.63;2.90;;;;;;;6.64;78.49;100352.81;5005009;28;20080;-71
2021/03/12 00:45:23;;;;;;;14.13;2.60;;;;;;;6.40;77.79;100328.38;5002110;28;20321;-71
2021/03/12 00:47:49;;;;;;;17.65;2.85;;;;;;;6.58;77.85;100362.97;5003631;28;20040;-71
2021/03/12 00:50:20;;;;;;;17.67;2.90;;;;;;;6.48;78.04;100370.09;5005210;28;20338;-71
2021/03/12 00:52:46;;;;;;;18.02;3.53;;;;;;;6.47;77.56;100372.88;5004921;28;20040;-71
2021/03/12 00:55:12;;;;;;;15.38;2.75;;;;;;;6.30;77.24;100358.50;5001832;28;20034;-71
2021/03/12 00:57:37;;;;;;;18.13;2.63;;;;;;;6.28;77.81;100355.97;4992894;28;20052;-73
2021/03/12 01:00:05;;;;;;;20.25;3.28;;;;;;;6.24;77.26;100366.00;5003946;28;20388;-73
2021/03/12 01:02:30;;;;;;;22.23;3.58;;;;;;;6.42;77.83;100397.16;5002584;28;20049;-74
2021/03/12 01:04:55;;;;;;;15.77;2.10;;;;;;;6.03;77.28;100342.28;5002861;28;20029;-71
2021/03/12 01:07:21;;;;;;;15.98;2.80;;;;;;;6.38;77.29;100396.59;4985255;28;20042;-73
2021/03/12 01:09:48;;;;;;;15.52;2.45;;;;;;;6.18;77.48;100377.16;5005586;28;20056;-73
2021/03/12 01:12:14;;;;;;;16.38;2.47;;;;;;;6.30;77.14;100401.75;5002959;28;20042;-71
2021/03/12 01:14:39;;;;;;;13.90;2.90;;;;;;;6.26;77.20;100406.44;5003067;28;20072;-73
2021/03/12 01:17:05;;;;;;;12.52;2.47;;;;;;;6.19;76.86;100402.69;5003039;28;20045;-73
2021/03/12 01:19:30;;;;;;;21.63;3.97;;;;;;;5.99;76.64;100372.63;4983805;28;20034;-74
2021/03/12 01:21:56;;;;;;;16.80;2.60;;;;;;;6.22;77.25;100414.81;5020596;28;20041;-74
2021/03/12 01:24:21;;;;;;;14.38;2.67;;;;;;;5.97;78.04;100385.97;5004110;28;20088;-71
2021/03/12 01:26:47;;;;;;;14.80;2.97;;;;;;;5.84;77.68;100364.19;4974134;28;20080;-74
2021/03/12 01:29:12;;;;;;;15.65;3.17;;;;;;;6.22;77.71;100436.88;4997332;28;20369;-73
2021/03/12 01:31:38;;;;;;;18.13;2.85;;;;;;;6.04;78.75;100406.69;5001868;28;20120;-72
2021/03/12 01:34:03;;;;;;;17.75;3.00;;;;;;;6.25;77.67;100428.63;4984256;28;20397;-72
2021/03/12 01:36:28;;;;;;;20.00;2.60;;;;;;;6.32;77.81;100428.09;4994368;28;20077;-72
2021/03/12 01:38:54;;;;;;;20.92;3.20;;;;;;;6.34;78.55;100432.28;5017341;28;20045;-73
2021/03/12 01:41:19;;;;;;;19.33;3.15;;;;;;;6.34;78.05;100424.31;4995890;28;20042;-74
2021/03/12 01:43:45;;;;;;;21.88;3.55;;;;;;;6.38;78.21;100435.53;4996875;28;20034;-73
2021/03/12 01:46:10;;;;;;;19.27;3.05;;;;;;;6.42;78.44;100431.59;5004620;28;20344;-73
2021/03/12 01:48:36;;;;;;;14.77;2.90;;;;;;;6.43;78.17;100430.63;5008634;28;20045;-73
2021/03/12 01:51:05;;;;;;;15.82;2.33;;;;;;;6.42;78.48;100440.41;5000588;28;20042;-73
2021/03/12 01:53:32;;;;;;;18.83;3.33;;;;;;;6.40;78.05;100445.00;4995637;28;20030;-74
2021/03/12 01:55:58;;;;;;;22.50;3.35;;;;;;;6.39;78.15;100442.47;4996951;28;20160;-73
2021/03/12 01:58:24;;;;;;;23.13;3.38;;;;;;;6.40;78.02;100454.75;5000899;28;20125;-73
2021/03/12 02:00:51;;;;;;;22.75;4.10;;;;;;;6.37;78.58;100447.91;5001912;28;20022;-74
2021/03/12 02:03:25;;;;;;;17.85;3.08;;;;;;;6.39;78.57;100455.72;4996380;28;20037;-71
2021/03/12 02:05:52;;;;;;;18.02;3.20;;;;;;;6.21;78.44;100434.34;4996594;28;20040;-71
2021/03/12 02:08:17;;;;;;;18.75;3.40;;;;;;;6.37;79.35;100461.16;4966090;28;20033;-72
2021/03/12 02:10:43;;;;;;;19.48;3.75;;;;;;;6.18;79.55;100442.53;4994873;28;20042;-73
2021/03/12 02:13:18;;;;;;;23.73;3.60;;;;;;;6.34;79.02;100453.47;4997331;28;20050;-73
2021/03/12 02:16:17;;;;;;;16.77;3.72;;;;;;;6.35;78.96;100467.59;4997414;28;20476;-73
2021/03/12 02:19:07;;;;;;;19.75;3.45;;;;;;;5.93;78.65;100395.19;4988566;28;20030;-73
2021/03/12 02:21:38;;;;;;;22.67;3.65;;;;;;;6.30;78.96;100467.13;4995233;28;20112;-72
2021/03/12 02:24:24;;;;;;;23.40;3.60;;;;;;;6.27;79.01;100468.25;4997483;28;20046;-72
2021/03/12 02:27:10;;;;;;;19.77;4.05;;;;;;;6.21;78.77;100476.72;4991192;28;20545;-73
2021/03/12 02:29:59;;;;;;;19.58;3.17;;;;;;;6.08;78.90;100475.16;4996061;28;20061;-73
2021/03/12 02:32:38;;;;;;;23.80;3.80;;;;;;;5.74;79.84;100429.50;4996963;28;20046;-75
2021/03/12 02:35:09;;;;;;;18.63;3.95;;;;;;;5.94;80.26;100480.75;4995714;28;20033;-74
2021/03/12 02:37:37;;;;;;;26.15;3.85;;;;;;;5.73;80.12;100455.16;4995701;28;20030;-74
2021/03/12 02:40:04;;;;;;;32.08;3.65;;;;;;;5.83;80.53;100479.06;5000468;28;20026;-74
2021/03/12 02:42:30;;;;;;;26.38;4.07;;;;;;;5.49;80.16;100427.19;4994655;28;20026;-72
2021/03/12 02:44:59;;;;;;;22.55;3.30;;;;;;;5.66;79.85;100469.88;4996413;28;20052;-72
2021/03/12 02:47:31;;;;;;;20.67;3.40;;;;;;;5.49;80.63;100452.78;4997014;28;20587;-72
2021/03/12 02:49:57;;;;;;;20.35;3.40;;;;;;;5.63;81.52;100497.47;4996928;28;20037;-72
2021/03/12 02:52:24;;;;;;;16.80;3.30;;;;;;;5.57;81.02;100495.31;4998697;28;20134;-72
2021/03/12 02:54:50;;;;;;;20.33;3.45;;;;;;;5.44;81.34;100473.50;4995637;28;20057;-72
2021/03/12 02:57:21;;;;;;;17.90;3.40;;;;;;;5.52;81.80;100494.88;4996096;28;20025;-72
2021/03/12 02:59:49;;;;;;;19.85;3.03;;;;;;;5.33;81.81;100477.88;4994955;28;20175;-72
2021/03/12 03:02:23;;;;;;;22.02;3.75;;;;;;;5.44;81.59;100489.38;4997021;28;20052;-72
2021/03/12 03:04:50;;;;;;;22.77;3.40;;;;;;;5.33;82.29;100477.88;4997782;28;20527;-72
2021/03/12 03:07:16;;;;;;;19.38;3.25;;;;;;;5.12;81.99;100463.81;5005024;28;20105;-74
2021/03/12 03:09:43;;;;;;;19.58;3.28;;;;;;;5.29;82.36;100486.22;4992546;28;20095;-74
2021/03/12 03:12:12;;;;;;;17.65;3.25;;;;;;;5.31;81.92;100492.22;5012289;28;20058;-72
2021/03/12 03:14:39;;;;;;;17.50;3.70;;;;;;;5.28;81.71;100485.38;4993379;28;20046;-73
2021/03/12 03:17:08;;;;;;;20.35;3.50;;;;;;;5.18;82.29;100474.72;4993892;28;20091;-73
2021/03/12 03:19:35;;;;;;;19.98;3.00;;;;;;;5.02;82.40;100461.91;4997875;28;20226;-73
2021/03/12 03:22:01;;;;;;;23.90;3.20;;;;;;;5.22;82.63;100492.00;4998144;28;20214;-73
2021/03/12 03:24:29;;;;;;;20.40;3.67;;;;;;;5.02;82.11;100471.66;4992065;28;20073;-73
2021/03/12 03:26:54;;;;;;;17.40;3.00;;;;;;;5.17;82.36;100496.00;5012999;28;20037;-73
2021/03/12 03:29:20;;;;;;;18.90;3.28;;;;;;;4.85;82.63;100443.97;4989202;28;20711;-73
2021/03/12 03:31:46;;;;;;;21.30;2.80;;;;;;;5.12;83.08;100499.03;4994710;28;20029;-73
2021/03/12 03:34:12;;;;;;;20.10;2.75;;;;;;;5.08;82.98;100500.25;4996872;28;20030;-73
2021/03/12 03:36:38;;;;;;;12.95;3.10;;;;;;;5.10;83.14;100497.47;4990664;28;20038;-73
2021/03/12 03:39:07;;;;;;;17.30;3.03;;;;;;;5.09;83.10;100501.09;4993854;28;20089;-73
2021/03/12 03:41:39;;;;;;;20.23;3.08;;;;;;;4.85;82.98;100463.28;4975748;28;20496;-73
2021/03/12 03:44:05;;;;;;;19.40;2.92;;;;;;;5.06;83.40;100507.47;4992424;28;20022;-73
2021/03/12 03:46:30;;;;;;;18.98;3.17;;;;;;;5.08;82.82;100510.84;5001839;28;20855;-73
2021/03/12 03:48:56;;;;;;;19.75;2.88;;;;;;;5.10;83.03;100508.06;4995472;28;20068;-74
2021/03/12 03:51:23;;;;;;;23.55;3.75;;;;;;;5.10;83.30;100511.53;4993793;28;20110;-74
2021/03/12 03:53:49;;;;;;;19.67;2.80;;;;;;;5.06;83.25;100520.69;4996127;28;20086;-73
2021/03/12 03:56:17;;;;;;;16.58;2.70;;;;;;;5.00;83.61;100516.75;5009286;28;20072;-72
2021/03/12 03:58:45;;;;;;;16.40;2.75;;;;;;;5.04;83.14;100530.56;4995232;28;20045;-73
2021/03/12 04:01:13;;;;;;;21.60;3.10;;;;;;;5.04;83.73;100526.09;4994889;28;20025;-73
2021/03/12 04:03:40;;;;;;;18.73;3.45;;;;;;;4.70;83.16;100486.53;5008672;28;20083;-72
2021/03/12 04:06:06;;;;;;;19.83;3.63;;;;;;;5.03;83.02;100535.00;4993952;28;20017;-73
2021/03/12 04:08:34;;;;;;;18.88;2.40;;;;;;;4.86;83.51;100506.44;4999025;28;20491;-73
2021/03/12 04:11:00;;;;;;;28.73;4.10;;;;;;;5.06;83.27;100542.69;4997134;28;20316;-72
2021/03/12 04:13:27;;;;;;;21.25;3.17;;;;;;;5.05;84.16;100533.06;4974378;28;20473;-72
2021/03/12 04:15:53;;;;;;;28.15;3.25;;;;;;;4.87;84.77;100514.25;4990161;28;20443;-72
2021/03/12 04:18:20;;;;;;;18.98;3.05;;;;;;;4.52;84.45;100469.50;4994818;28;20045;-71
2021/03/12 04:20:46;;;;;;;23.45;3.30;;;;;;;4.57;83.91;100470.81;4994638;28;20044;-71
2021/03/12 04:23:12;;;;;;;23.15;4.20;;;;;;;5.00;84.01;100534.41;4996892;28;20080;-71
2021/03/12 04:25:38;;;;;;;13.63;2.63;;;;;;;4.84;84.60;100511.84;4993270;28;20531;-71
2021/03/12 04:28:04;;;;;;;22.38;3.85;;;;;;;4.99;83.79;100536.22;4979381;28;20064;-71
2021/03/12 04:30:30;;;;;;;18.00;3.55;;;;;;;4.99;84.02;100536.22;4998146;28;20064;-72
2021/03/12 04:32:57;;;;;;;17.92;3.03;;;;;;;4.98;83.95;100537.19;4995387;28;20049;-72
2021/03/12 04:35:23;;;;;;;21.60;3.45;;;;;;;4.99;84.42;100532.72;4999309;28;20038;-72
2021/03/12 04:37:48;;;;;;;17.52;2.95;;;;;;;5.00;84.26;100529.13;4995669;28;20041;-73
2021/03/12 04:40:15;;;;;;;15.82;2.42;;;;;;;4.90;83.81;100518.44;4992477;28;20065;-72
2021/03/12 04:42:45;;;;;;;20.40;2.60;;;;;;;4.99;84.36;100528.28;4993336;28;20034;-72
2021/03/12 04:45:12;;;;;;;21.02;3.45;;;;;;;5.04;83.52;100535.84;4990246;28;20026;-72
2021/03/12 04:47:38;;;;;;;14.20;3.35;;;;;;;5.06;83.13;100536.56;4997958;28;20507;-72
2021/03/12 04:50:06;;;;;;;20.67;3.65;;;;;;;5.06;83.61;100526.00;4986707;28;20429;-72
2021/03/12 04:52:32;;;;;;;20.02;3.33;;;;;;;5.05;83.43;100535.72;4996744;28;20026;-73
2021/03/12 04:54:59;;;;;;;17.60;3.10;;;;;;;4.80;83.91;100491.94;4991431;28;20073;-72
2021/03/12 04:57:25;;;;;;;17.65;2.92;;;;;;;4.75;84.44;100489.63;4993977;28;20101;-72
2021/03/12 04:59:54;;;;;;;16.15;2.55;;;;;;;4.79;83.52;100484.97;4997797;28;20129;-72
2021/03/12 05:02:20;;;;;;;22.65;2.78;;;;;;;5.06;83.35;100531.28;4995350;28;20053;-71
2021/03/12 05:04:49;;;;;;;15.95;2.30;;;;;;;5.04;84.00;100539.31;4993661;28;20037;-71
2021/03/12 05:07:23;;;;;;;18.85;3.08;;;;;;;4.78;83.41;100493.00;4994748;28;20024;-71
2021/03/12 05:09:49;;;;;;;22.65;2.90;;;;;;;5.03;83.85;100540.28;4995460;28;20473;-72
2021/03/12 05:12:15;;;;;;;18.88;3.53;;;;;;;5.02;83.88;100533.31;4997722;28;20073;-72
2021/03/12 05:14:41;;;;;;;24.65;3.40;;;;;;;5.03;83.76;100542.09;4994374;28;20479;-72
2021/03/12 05:17:06;;;;;;;24.85;3.10;;;;;;;4.73;84.21;100499.50;4995584;28;20033;-72
2021/03/12 05:19:32;;;;;;;21.50;3.30;;;;;;;4.95;84.55;100539.25;5001400;28;20022;-72
2021/03/12 05:21:58;;;;;;;18.77;2.72;;;;;;;4.78;84.51;100512.34;5002507;28;20522;-72
2021/03/12 05:24:24;;;;;;;22.77;3.63;;;;;;;4.62;85.34;100488.94;5004687;28;20562;-72
2021/03/12 05:26:50;;;;;;;19.35;2.80;;;;;;;4.95;85.58;100542.72;5002644;28;20121;-72
2021/03/12 05:29:16;;;;;;;20.15;3.50;;;;;;;4.86;85.55;100556.69;5001504;28;20034;-72
2021/03/12 05:31:41;;;;;;;19.92;3.40;;;;;;;4.85;86.11;100557.66;4997601;28;20033;-72
2021/03/12 05:34:07;;;;;;;20.25;3.35;;;;;;;4.83;85.89;100555.09;5001714;28;20068;-72
2021/03/12 05:36:32;;;;;;;16.75;2.97;;;;;;;4.82;86.30;100550.78;4995051;28;20535;-72
2021/03/12 05:38:58;;;;;;;23.73;3.20;;;;;;;4.84;86.05;100554.16;5001579;28;20073;-72
2021/03/12 05:41:23;;;;;;;22.38;3.67;;;;;;;4.83;86.50;100547.19;5004004;28;20522;-72
2021/03/12 05:43:49;;;;;;;18.23;3.30;;;;;;;4.87;85.74;100550.44;5002248;28;20030;-72
2021/03/12 05:46:15;;;;;;;17.52;3.22;;;;;;;4.86;85.86;100549.59;5002098;28;20532;-72
2021/03/12 05:48:44;;;;;;;18.70;3.13;;;;;;;4.86;85.37;100557.53;5002444;28;20018;-72
2021/03/12 05:51:10;;;;;;;20.52;3.45;;;;;;;4.76;85.14;100540.72;5009146;28;20033;-74
2021/03/12 05:53:36;;;;;;;20.52;3.15;;;;;;;4.86;85.80;100557.53;5002314;28;20472;-74
2021/03/12 05:56:02;;;;;;;20.92;3.47;;;;;;;4.87;84.79;100556.56;4998736;28;20025;-72
2021/03/12 05:58:28;;;;;;;18.52;2.75;;;;;;;4.86;84.63;100556.69;5002329;28;20056;-72
2021/03/12 06:00:54;;;;;;;18.33;2.85;;;;;;;4.77;85.05;100537.13;4986304;28;20485;-74
2021/03/12 06:03:19;;;;;;;24.80;3.42;;;;;;;4.87;84.52;100555.72;5002942;28;20157;-74
2021/03/12 06:05:47;;;;;;;20.17;2.60;;;;;;;4.84;84.90;100548.03;5015524;28;20065;-74
2021/03/12 06:08:13;;;;;;;17.23;2.83;;;;;;;4.69;84.95;100528.94;4999083;28;20065;-74
2021/03/12 06:10:39;;;;;;;19.95;3.20;;;;;;;4.87;84.97;100555.72;5017342;28;20496;-74
2021/03/12 06:13:04;;;;;;;21.55;2.83;;;;;;;4.51;84.80;100494.25;5001153;28;20057;-74
2021/03/12 06:15:38;;;;;;;16.05;3.83;;;;;;;4.84;84.54;100551.50;4999324;28;20030;-74
2021/03/12 06:18:12;;;;;;;18.33;3.22;;;;;;;4.43;84.96;100490.44;5000735;28;20026;-74
2021/03/12 06:20:37;;;;;;;19.45;3.30;;;;;;;4.86;85.02;100562.81;5002139;28;20065;-73
2021/03/12 06:23:03;;;;;;;24.83;3.47;;;;;;;4.79;85.67;100547.56;5001738;28;20053;-73
2021/03/12 06:25:32;;;;;;;17.23;3.22;;;;;;;4.81;85.45;100558.84;5000184;28;20029;-73
2021/03/12 06:28:21;;;;;;;26.02;3.30;;;;;;;4.77;85.96;100552.13;5003162;28;20053;-73
2021/03/12 06:30:47;;;;;;;26.33;3.80;;;;;;;4.73;85.89;100560.31;5001867;28;20096;-73
2021/03/12 06:33:34;;;;;;;17.00;3.33;;;;;;;4.66;86.32;100559.09;5017636;28;20785;-73
2021/03/12 06:36:03;;;;;;;23.80;3.80;;;;;;;4.67;86.69;100550.22;4996074;28;20298;-74
2021/03/12 06:38:28;;;;;;;;;;;;;;;4.68;86.73;100557.19;5000217;28;20034;-74
2021/03/12 06:40:54;;;;;;;20.52;3.08;;;;;;;4.68;86.60;100559.00;5003104;28;19913;-73
2021/03/12 06:43:24;;;;;;;22.33;3.58;;;;;;;4.70;85.77;100565.84;5015878;28;20022;-73
2021/03/12 06:45:52;;;;;;;19.10;3.92;;;;;;;4.84;85.48;100562.09;5000378;28;20026;-73
2021/03/12 06:48:33;;;;;;;18.40;3.58;;;;;;;4.89;85.44;100562.56;5001207;28;20020;-73
2021/03/12 06:51:01;;;;;;;21.67;3.40;;;;;;;4.81;85.49;100535.91;5003646;28;20085;-72
2021/03/12 06:53:31;;;;;;;24.15;4.28;;;;;;;4.77;84.83;100523.91;5003749;28;20030;-72
2021/03/12 06:56:02;;;;;;;22.17;3.58;;;;;;;5.09;84.24;100553.97;4999084;28;20057;-73
2021/03/12 06:58:28;;;;;;;21.40;3.92;;;;;;;5.13;84.15;100553.59;5020763;28;20127;-73
2021/03/12 07:00:54;;;;;;;24.92;4.75;;;;;;;4.86;84.13;100509.09;5003588;28;20037;-73
2021/03/12 07:03:25;;;;;;;19.73;4.05;;;;;;;5.08;83.44;100529.34;5004504;28;20045;-72
2021/03/12 07:06:03;;;;;;;17.73;3.55;;;;;;;5.31;83.24;100555.72;5001635;28;20034;-71
2021/03/12 07:08:42;;;;;;;25.17;3.92;;;;;;;5.36;82.74;100542.97;4995109;28;20419;-72
2021/03/12 07:11:26;;;;;;;;;;;;;;;5.35;83.42;100555.34;4999722;28;20145;-72
2021/03/12 07:13:54;;;;;;;26.80;3.75;;;;;;;5.40;82.96;100546.19;5001135;28;19917;-72
2021/03/12 07:16:22;;;;;;;23.35;4.13;;;;;;;5.48;83.25;100544.59;4997253;28;20370;-72
2021/03/12 07:18:49;;;;;;;23.15;4.13;;;;;;;5.56;82.45;100535.16;4998106;28;20119;-72
2021/03/12 07:21:17;;;;;;;21.55;3.30;;;;;;;5.65;81.89;100544.97;4996744;28;20038;-73
2021/03/12 07:23:47;;;;;;;;;;;;;;;5.64;82.08;100538.00;5002546;28;20052;-73
2021/03/12 07:26:14;;;;;;;24.70;4.22;;;;;;;5.65;82.51;100521.16;4996316;28;19921;-73
2021/03/12 07:28:41;;;;;;;32.38;4.57;;;;;;;5.99;80.91;100536.84;5013949;28;20044;-73
2021/03/12 07:31:16;;;;;;;29.05;4.30;;;;;;;6.22;80.83;100531.41;5003750;28;20041;-73
2021/03/12 07:33:50;;;;;;;27.92;4.32;;;;;;;6.49;79.18;100541.44;4994753;28;20359;-78
2021/03/12 07:36:22;;;;;;;23.40;4.38;;;;;;;6.81;77.77;100510.41;5011388;28;20029;-76
2021/03/12 07:38:51;;;;;;;24.40;4.20;;;;;;;6.96;76.97;100527.59;4995225;28;20033;-77
2021/03/12 07:41:16;;;;;;;25.85;4.55;;;;;;;7.36;77.02;100533.75;4996636;28;20125;-78
2021/03/12 07:43:43;;;;;;;24.30;4.03;;;;;;;7.81;74.48;100519.88;4994020;28;20480;-71
2021/03/12 07:46:12;;;;;;;27.83;4.05;;;;;;;8.20;73.10;100532.25;4996800;28;20076;-82
2021/03/12 07:48:37;;;;;;;21.45;4.63;;;;;;;8.84;70.68;100527.06;4995178;28;20026;-77
2021/03/12 07:51:10;;;;;;;25.90;4.85;;;;;;;9.01;70.10;100533.38;4995185;28;20479;-77
2021/03/12 07:53:56;;;;;;;22.13;4.38;;;;;;;9.17;69.49;100527.38;4992518;28;20040;-77
2021/03/12 07:56:51;;;;;;;22.58;4.28;;;;;;;9.20;68.29;100441.06;4992026;28;20054;-78
2021/03/12 07:59:17;;;;;;;28.60;4.68;;;;;;;9.53;67.24;100483.91;5011528;28;21260;-75
2021/03/12 08:01:46;;;;;;;21.05;4.88;;;;;;;9.98;65.84;100524.69;4996419;28;20030;-69
2021/03/12 08:04:30;;;;;;;20.90;4.25;;;;;;;9.76;66.47;100512.72;5011527;28;20041;-69
2021/03/12 08:06:58;;;;;;;20.60;4.97;;;;;;;10.17;65.94;100510.31;4989165;28;20048;-69
2021/03/12 08:09:37;;;;;;;24.83;4.75;;;;;;;10.80;64.28;100523.41;4996464;28;20029;-69
2021/03/12 08:12:03;;;;;;;23.55;5.07;;;;;;;11.41;62.66;100513.34;5009913;28;20180;-70
2021/03/12 08:14:30;;;;;;;22.08;4.90;;;;;;;11.58;61.24;100530.22;4994922;28;20050;-70
2021/03/12 08:16:56;;;;;;;22.83;4.72;;;;;;;12.38;59.33;100522.41;4992792;28;20069;-70
2021/03/12 08:19:32;;;;;;;19.52;4.93;;;;;;;12.19;58.88;100524.47;4995865;28;20037;-70
2021/03/12 08:22:00;;;;;;;25.25;5.22;;;;;;;11.25;60.80;100521.34;4996779;28;20559;-71
2021/03/12 08:24:46;;;;;;;26.03;5.47;;;;;;;10.57;63.81;100513.34;4998011;28;20034;-70
2021/03/12 08:27:40;;;;;;;24.73;5.15;;;;;;;9.82;66.04;100513.94;4989808;28;20519;-70
2021/03/12 08:30:12;;;;;;;28.05;5.10;;;;;;;9.00;68.35;100494.44;4994800;28;20188;-70
2021/03/12 08:32:43;;;;;;;31.25;5.63;;;;;;;8.79;69.00;100469.97;4998630;28;20038;-70
2021/03/12 08:35:40;;;;;;;29.98;6.03;;;;;;;9.26;68.55;100519.50;4997466;28;20125;-70
2021/03/12 08:38:26;;;;;;;26.10;4.72;;;;;;;9.55;67.76;100503.25;5007760;28;20048;-70
2021/03/12 08:41:16;;;;;;;24.67;5.18;;;;;;;9.62;67.75;100503.47;4995116;28;20029;-69
2021/03/12 08:43:51;;;;;;;22.30;5.30;;;;;;;9.53;67.57;100499.06;4996265;28;20149;-69
2021/03/12 08:46:28;;;;;;;28.48;5.60;;;;;;;9.23;68.62;100506.47;4998778;28;20053;-70
2021/03/12 08:49:06;;;;;;;27.65;4.88;;;;;;;9.00;69.85;100499.78;5003417;28;20117;-71
2021/03/12 08:51:33;;;;;;;30.10;4.73;;;;;;;9.08;70.16;100506.19;5001755;28;20017;-69
2021/03/12 08:54:02;;;;;;;31.20;5.30;;;;;;;8.23;71.61;100481.41;4997622;28;20456;-70
2021/03/12 08:56:31;;;;;;;27.27;4.43;;;;;;;8.25;72.21;100494.59;5003895;28;20116;-69
2021/03/12 08:58:58;;;;;;;26.70;5.13;;;;;;;8.07;73.81;100499.84;5007187;28;20084;-69
2021/03/12 09:01:26;;;;;;;31.85;5.20;;;;;;;7.86;73.76;100484.91;5003698;28;20033;-69
2021/03/12 09:03:54;;;;;;;33.63;5.00;;;;;;;7.91;73.97;100480.03;5006453;28;20080;-69
2021/03/12 09:06:26;;;;;;;25.02;4.88;;;;;;;7.92;74.13;100478.19;5006608;28;20026;-69
2021/03/12 09:08:52;;;;;;;29.95;4.53;;;;;;;8.14;74.11;100481.47;5008286;28;20069;-69
2021/03/12 09:11:37;;;;;;;38.83;5.28;;;;;;;8.46;73.35;100472.22;5007444;28;20046;-70
2021/03/12 09:14:03;;;;;;;29.65;5.57;;;;;;;8.85;71.53;100467.53;5009366;28;20557;-69
2021/03/12 09:16:30;;;;;;;34.38;5.03;;;;;;;8.66;71.83;100475.63;5006179;28;20034;-69
2021/03/12 09:18:56;;;;;;;30.15;5.70;;;;;;;8.50;72.57;100463.81;5006242;28;20493;-69
2021/03/12 09:21:26;;;;;;;29.80;5.13;;;;;;;8.10;74.11;100439.25;5009937;28;20029;-80
2021/03/12 09:23:54;;;;;;;34.28;6.22;;;;;;;8.14;73.93;100401.75;5006194;28;20022;-78
2021/03/12 09:26:24;;;;;;;32.33;4.97;;;;;;;8.36;74.57;100451.84;5014536;28;20036;-79
2021/03/12 09:28:52;;;;;;;28.60;5.22;;;;;;;8.24;74.76;100448.53;5005802;28;20025;-78
2021/03/12 09:31:19;;;;;;;29.80;5.20;;;;;;;8.21;76.01;100443.50;5005354;28;20026;-78
2021/03/12 09:33:48;;;;;;;31.60;6.50;;;;;;;8.31;75.75;100442.66;5003926;28;20097;-78
2021/03/12 09:36:24;;;;;;;;;;;;;;;8.27;75.53;100434.13;4999099;28;20036;-77
2021/03/12 09:38:51;;;;;;;28.60;5.05;;;;;;;8.37;74.81;100434.06;5008499;28;19918;-79
2021/03/12 09:41:22;;;;;;;29.17;5.80;;;;;;;8.47;75.25;100445.50;5008944;28;20080;-77
2021/03/12 09:44:13;;;;;;;30.60;5.68;;;;;;;8.02;81.69;100443.63;5017329;28;20294;-77
2021/03/12 09:46:41;;;;;;;34.63;5.97;;;;;;;7.62;84.30;100462.34;5001281;28;20219;-75
2021/03/12 09:49:14;;;;;;;35.67;5.78;;;;;;;7.25;86.53;100444.50;5009448;28;20030;-77
2021/03/12 09:51:53;;;;;;;40.42;6.55;;;;;;;6.63;89.91;100417.41;5009143;28;20022;-77
2021/03/12 09:54:20;;;;;;;24.15;5.13;;;;;;;6.62;91.59;100427.16;5007900;28;20152;-74
2021/03/12 09:56:50;;;;;;;27.50;4.63;;;;;;;6.52;91.22;100423.69;5001871;28;20034;-75
2021/03/12 09:59:29;;;;;;;21.80;4.18;;;;;;;6.38;91.96;100454.06;5008321;28;20037;-75
2021/03/12 10:02:05;;;;;;;21.80;3.92;;;;;;;6.25;92.93;100433.09;5004797;28;20022;-74
2021/03/12 10:04:36;;;;;;;20.65;4.13;;;;;;;6.21;93.35;100437.84;5004263;28;20481;-75
2021/03/12 10:07:06;;;;;;;24.08;5.00;;;;;;;5.82;94.03;100369.63;5005673;28;20033;-74
2021/03/12 10:09:37;;;;;;;28.02;5.13;;;;;;;5.99;94.78;100404.41;5006420;28;20055;-76
2021/03/12 10:12:04;;;;;;;28.92;4.60;;;;;;;6.22;94.56;100439.50;5005989;28;20049;-75
2021/03/12 10:14:32;;;;;;;28.38;6.55;;;;;;;6.27;94.38;100423.22;5007205;28;20125;-75
2021/03/12 10:17:08;;;;;;;;;;;;;;;6.34;93.14;100426.16;5002511;28;20030;-75
2021/03/12 10:19:40;;;;;;;25.55;5.20;;;;;;;6.44;93.23;100427.00;5004097;28;19925;-74
2021/03/12 10:22:15;;;;;;;29.67;6.10;;;;;;;6.54;93.34;100422.56;5004521;28;20132;-76
2021/03/12 10:24:40;;;;;;;25.85;5.35;;;;;;;6.64;93.72;100405.84;5004046;28;20567;-76
2021/03/12 10:27:06;;;;;;;31.58;5.85;;;;;;;6.93;92.28;100418.25;5002594;28;20037;-75
2021/03/12 10:29:35;;;;;;;24.80;5.15;;;;;;;7.01;91.22;100405.13;5005911;28;20029;-75
2021/03/12 10:32:08;;;;;;;20.73;4.65;;;;;;;7.05;90.46;100427.78;5004474;28;20253;-76
2021/03/12 10:34:43;;;;;;;23.08;4.53;;;;;;;7.09;89.50;100417.72;5004970;28;20103;-76
2021/03/12 10:37:11;;;;;;;23.45;4.38;;;;;;;7.10;89.44;100380.41;5001792;28;20030;-76
2021/03/12 10:39:41;;;;;;;19.52;4.47;;;;;;;7.45;88.50;100404.66;5005311;28;20411;-76
2021/03/12 10:42:07;;;;;;;18.10;4.18;;;;;;;7.65;88.22;100414.25;5004069;28;20535;-76
2021/03/12 10:44:50;;;;;;;21.52;3.88;;;;;;;7.81;86.92;100399.50;5004058;28;20030;-76
2021/03/12 10:47:16;;;;;;;20.02;4.55;;;;;;;7.84;85.58;100391.25;5001802;28;20017;-76
2021/03/12 10:49:41;;;;;;;18.98;3.95;;;;;;;7.91;84.75;100394.16;5005095;28;20040;-77
2021/03/12 10:52:07;;;;;;;23.95;4.10;;;;;;;7.53;85.49;100356.13;4999695;28;20069;-76
2021/03/12 10:54:32;;;;;;;19.33;3.60;;;;;;;7.76;85.08;100380.50;4997624;28;20026;-75
2021/03/12 10:56:58;;;;;;;19.45;4.30;;;;;;;7.24;84.39;100294.22;5013084;28;20042;-76
2021/03/12 10:59:23;;;;;;;24.33;4.35;;;;;;;7.57;85.51;100338.94;4996666;28;20087;-76
2021/03/12 11:01:50;;;;;;;18.50;4.35;;;;;;;7.90;84.43;100380.03;5000308;28;20034;-76
2021/03/12 11:04:16;;;;;;;15.70;4.22;;;;;;;7.90;84.57;100382.69;5000703;28;20484;-76
2021/03/12 11:06:42;;;;;;;22.27;4.50;;;;;;;7.65;84.37;100350.50;4996714;28;20038;-76
2021/03/12 11:09:13;;;;;;;21.67;4.60;;;;;;;7.65;83.78;100339.88;4998757;28;20049;-76
2021/03/12 11:11:41;;;;;;;20.88;4.60;;;;;;;8.02;83.74;100359.41;5000416;28;20046;-76
2021/03/12 11:14:09;;;;;;;20.17;4.10;;;;;;;8.10;83.72;100356.00;4998690;28;20046;-76
2021/03/12 11:16:34;;;;;;;17.60;4.13;;;;;;;8.14;82.61;100362.69;4997370;28;20040;-76
2021/03/12 11:19:00;;;;;;;18.33;4.13;;;;;;;8.11;81.81;100336.41;5000251;28;20627;-76
2021/03/12 11:21:28;;;;;;;27.48;5.50;;;;;;;8.21;82.28;100358.44;4998472;28;20030;-77
2021/03/12 11:23:54;;;;;;;16.33;5.20;;;;;;;8.09;82.36;100325.09;5003391;28;20033;-77
2021/03/12 11:26:21;;;;;;;20.98;5.60;;;;;;;8.07;83.56;100349.19;5001069;28;20030;-77
2021/03/12 11:28:47;;;;;;;25.85;5.32;;;;;;;7.91;84.48;100341.88;5002300;28;20034;-77
2021/03/12 11:31:13;;;;;;;23.85;5.97;;;;;;;7.82;86.44;100332.94;4999116;28;20464;-76
2021/03/12 11:33:39;;;;;;;26.50;5.72;;;;;;;7.73;86.66;100339.16;4999468;28;20080;-77
2021/03/12 11:36:07;;;;;;;30.40;5.95;;;;;;;7.72;86.00;100340.13;4995866;28;20033;-77